PWSweather.com
Personal Weather Stations
Station Observations
STAW2
Wielkopolska, Staw 2PL 62-420

WielkopolskaStaw 2PL 62-420

Lat: 52.31954663122409, Lon: 17.747787594926194

Elevation: 301.84

Station Type: Davis Vantage Pro2

http://pogoda-staw.pl

Latest ConditionsUpdated 2:30:02 PM GMT+01:01 Saturday, Mar 25, 2017
Currently Today's Max Today's Min Today's Average
Temperature 51.4°F10.8°C 52.3°F11.3°C 32.8°F0.4°C 40.9°F4.9°C
Dew Point 34.8°F1.6°C 35.2°F1.8°C 27.5°F-2.5°C 30.9°F-0.6°C
Winds 9.2 mph WSW14.8 kmh WSW 9.2 mph WSW14.8 kmh WSW - 3.0 mph 4.8 kmh
Wind Gusts 11.5 mph18.5 kmh 12.7 mph20.4 kmh - -
Humidity 53% 85% 49% 69%
Pressure 30.17 in1021.7 mb 30.40 in1029.5 mb 30.17 in1021.7 mb -
Hour Temp Dew Point Humidity Winds Wind Gusts Pressure Precip Precip Rate Daily Precip Total
02:30 PM 51.4°F10.8°C 34.8°F1.6°C 53% 9.2 mph WSW14.8 kmh WSW 11.5 mph18.5 kmh 30.17 in1021.7 mb - 0.00 in0.0 mm 0.00 in0.0 mm
02:15 PM 51.6°F10.9°C 34.0°F1.1°C 51% 8.1 mph WSW13.0 kmh WSW 11.5 mph18.5 kmh 30.18 in1022.0 mb - 0.00 in0.0 mm 0.00 in0.0 mm
02:00 PM 51.8°F11.0°C 34.2°F1.2°C 51% 6.9 mph W11.1 kmh W 11.5 mph18.5 kmh 30.18 in1022.0 mb - 0.00 in0.0 mm 0.00 in0.0 mm
01:45 PM 52.3°F11.3°C 35.2°F1.8°C 52% 6.9 mph WSW11.1 kmh WSW 12.7 mph20.4 kmh 30.19 in1022.4 mb - 0.00 in0.0 mm 0.00 in0.0 mm
01:30 PM 51.3°F10.7°C 33.3°F0.7°C 50% 8.1 mph W13.0 kmh W 11.5 mph18.5 kmh 30.20 in1022.7 mb - 0.00 in0.0 mm 0.00 in0.0 mm
01:15 PM 50.8°F10.4°C 33.3°F0.7°C 51% 8.1 mph W13.0 kmh W 12.7 mph20.4 kmh 30.21 in1023.0 mb - 0.00 in0.0 mm 0.00 in0.0 mm
01:00 PM 50.4°F10.2°C 32.4°F0.2°C 50% 6.9 mph WSW11.1 kmh WSW 9.2 mph14.8 kmh 30.22 in1023.4 mb - 0.00 in0.0 mm 0.00 in0.0 mm
12:45 PM 50.7°F10.4°C 32.2°F0.1°C 49% 4.6 mph NW7.4 kmh NW 6.9 mph11.1 kmh 30.22 in1023.4 mb - 0.00 in0.0 mm 0.00 in0.0 mm
12:30 PM 50.5°F10.3°C 32.5°F0.3°C 50% 3.5 mph WNW5.6 kmh WNW 8.1 mph13.0 kmh 30.23 in1023.7 mb - 0.00 in0.0 mm 0.00 in0.0 mm
12:15 PM 50.0°F10.0°C 32.0°F0.0°C 50% 6.9 mph W11.1 kmh W 11.5 mph18.5 kmh 30.23 in1023.7 mb - 0.00 in0.0 mm 0.00 in0.0 mm
12:00 PM 50.0°F10.0°C 32.6°F0.3°C 51% 4.6 mph WNW7.4 kmh WNW 10.4 mph16.7 kmh 30.24 in1024.0 mb - 0.00 in0.0 mm 0.00 in0.0 mm
11:45 AM 49.4°F9.7°C 32.5°F0.3°C 52% 6.9 mph W11.1 kmh W 12.7 mph20.4 kmh 30.25 in1024.4 mb - 0.00 in0.0 mm 0.00 in0.0 mm
11:30 AM 48.9°F9.4°C 33.4°F0.8°C 55% 3.5 mph W5.6 kmh W 5.8 mph9.3 kmh 30.25 in1024.4 mb - 0.00 in0.0 mm 0.00 in0.0 mm
11:15 AM 48.2°F9.0°C 31.4°F-0.3°C 52% 5.8 mph WSW9.3 kmh WSW 10.4 mph16.7 kmh 30.26 in1024.7 mb - 0.00 in0.0 mm 0.00 in0.0 mm
11:00 AM 48.2°F9.0°C 31.4°F-0.3°C 52% 4.6 mph W7.4 kmh W 12.7 mph20.4 kmh 30.26 in1024.7 mb - 0.00 in0.0 mm 0.00 in0.0 mm
10:45 AM 47.5°F8.6°C 32.6°F0.3°C 56% 8.1 mph W13.0 kmh W 10.4 mph16.7 kmh 30.27 in1025.1 mb - 0.00 in0.0 mm 0.00 in0.0 mm
10:30 AM 46.9°F8.3°C 33.3°F0.7°C 59% 5.8 mph WSW9.3 kmh WSW 11.5 mph18.5 kmh 30.27 in1025.1 mb - 0.00 in0.0 mm 0.00 in0.0 mm
10:15 AM 46.6°F8.1°C 33.4°F0.8°C 60% 6.9 mph SW11.1 kmh SW 10.4 mph16.7 kmh 30.27 in1025.1 mb - 0.00 in0.0 mm 0.00 in0.0 mm
10:00 AM 46.0°F7.8°C 32.9°F0.5°C 60% 6.9 mph WSW11.1 kmh WSW 8.1 mph13.0 kmh 30.28 in1025.4 mb - 0.00 in0.0 mm 0.00 in0.0 mm
09:45 AM 45.2°F7.3°C 33.7°F0.9°C 64% 4.6 mph WSW7.4 kmh WSW 11.5 mph18.5 kmh 30.29 in1025.7 mb - 0.00 in0.0 mm 0.00 in0.0 mm
09:30 AM 44.0°F6.7°C 33.0°F0.6°C 65% 4.6 mph SW7.4 kmh SW 6.9 mph11.1 kmh 30.29 in1025.7 mb - 0.00 in0.0 mm 0.00 in0.0 mm
09:15 AM 43.0°F6.1°C 32.8°F0.4°C 67% 3.5 mph SW5.6 kmh SW 5.8 mph9.3 kmh 30.30 in1026.1 mb - 0.00 in0.0 mm 0.00 in0.0 mm
09:00 AM 42.1°F5.6°C 32.3°F0.2°C 68% 4.6 mph SW7.4 kmh SW 6.9 mph11.1 kmh 30.30 in1026.1 mb - 0.00 in0.0 mm 0.00 in0.0 mm
08:45 AM 41.4°F5.2°C 32.3°F0.2°C 70% 4.6 mph SW7.4 kmh SW 8.1 mph13.0 kmh 30.30 in1026.1 mb - 0.00 in0.0 mm 0.00 in0.0 mm
08:30 AM 40.8°F4.9°C 32.1°F0.1°C 71% 4.6 mph SW7.4 kmh SW 8.1 mph13.0 kmh 30.30 in1026.1 mb - 0.00 in0.0 mm 0.00 in0.0 mm
08:15 AM 39.8°F4.3°C 30.8°F-0.7°C 70% 3.5 mph WSW5.6 kmh WSW 5.8 mph9.3 kmh 30.31 in1026.4 mb - 0.00 in0.0 mm 0.00 in0.0 mm
08:00 AM 39.0°F3.9°C 31.4°F-0.3°C 74% 2.3 mph SW3.7 kmh SW 6.9 mph11.1 kmh 30.32 in1026.8 mb - 0.00 in0.0 mm 0.00 in0.0 mm
07:45 AM 38.0°F3.3°C 30.5°F-0.8°C 74% 2.3 mph SW3.7 kmh SW 3.5 mph5.6 kmh 30.32 in1026.8 mb - 0.00 in0.0 mm 0.00 in0.0 mm
07:30 AM 37.2°F2.9°C 30.0°F-1.1°C 75% 1.2 mph WSW1.9 kmh WSW 3.5 mph5.6 kmh 30.33 in1027.1 mb - 0.00 in0.0 mm 0.00 in0.0 mm
07:15 AM 36.5°F2.5°C 29.6°F-1.3°C 76% 2.3 mph SW3.7 kmh SW 3.5 mph5.6 kmh 30.33 in1027.1 mb - 0.00 in0.0 mm 0.00 in0.0 mm
07:00 AM 35.6°F2.0°C 29.1°F-1.6°C 77% 2.3 mph WSW3.7 kmh WSW 3.5 mph5.6 kmh 30.33 in1027.1 mb - 0.00 in0.0 mm 0.00 in0.0 mm
06:45 AM 34.9°F1.6°C 29.4°F-1.4°C 80% Calm Calm -- 30.33 in1027.1 mb - 0.00 in0.0 mm 0.00 in0.0 mm
06:30 AM 34.4°F1.3°C 28.9°F-1.7°C 80% 1.2 mph WSW1.9 kmh WSW 2.3 mph3.7 kmh 30.33 in1027.1 mb - 0.00 in0.0 mm 0.00 in0.0 mm
06:15 AM 33.8°F1.0°C 28.6°F-1.9°C 81% 1.2 mph SW1.9 kmh SW 2.3 mph3.7 kmh 30.33 in1027.1 mb - 0.00 in0.0 mm 0.00 in0.0 mm
06:00 AM 33.1°F0.6°C 28.7°F-1.8°C 84% Calm Calm -- 30.33 in1027.1 mb - 0.00 in0.0 mm 0.00 in0.0 mm
05:45 AM 32.8°F0.4°C 28.2°F-2.1°C 83% Calm Calm -- 30.33 in1027.1 mb - 0.00 in0.0 mm 0.00 in0.0 mm
05:30 AM 33.1°F0.6°C 27.6°F-2.4°C 80% Calm Calm -- 30.34 in1027.4 mb - 0.00 in0.0 mm 0.00 in0.0 mm
05:15 AM 33.3°F0.7°C 27.8°F-2.3°C 80% Calm Calm -- 30.34 in1027.4 mb - 0.00 in0.0 mm 0.00 in0.0 mm
05:00 AM 34.0°F1.1°C 27.5°F-2.5°C 77% Calm Calm -- 30.34 in1027.4 mb - 0.00 in0.0 mm 0.00 in0.0 mm
04:45 AM 34.6°F1.4°C 27.8°F-2.3°C 76% Calm Calm -- 30.34 in1027.4 mb - 0.00 in0.0 mm 0.00 in0.0 mm
04:30 AM 35.0°F1.7°C 27.9°F-2.3°C 75% Calm Calm -- 30.35 in1027.8 mb - 0.00 in0.0 mm 0.00 in0.0 mm
04:15 AM 35.4°F1.9°C 27.6°F-2.4°C 73% 1.2 mph WSW1.9 kmh WSW 2.3 mph3.7 kmh 30.35 in1027.8 mb - 0.00 in0.0 mm 0.00 in0.0 mm
04:00 AM 35.8°F2.1°C 28.0°F-2.2°C 73% 1.2 mph WSW1.9 kmh WSW 2.3 mph3.7 kmh 30.35 in1027.8 mb - 0.00 in0.0 mm 0.00 in0.0 mm
03:45 AM 36.0°F2.2°C 27.9°F-2.3°C 72% 2.3 mph W3.7 kmh W 2.3 mph3.7 kmh 30.35 in1027.8 mb - 0.00 in0.0 mm 0.00 in0.0 mm
03:30 AM 35.8°F2.1°C 28.3°F-2.1°C 74% 2.3 mph W3.7 kmh W 3.5 mph5.6 kmh 30.36 in1028.1 mb - 0.00 in0.0 mm 0.00 in0.0 mm
03:15 AM 35.1°F1.7°C 28.6°F-1.9°C 77% 2.3 mph W3.7 kmh W 3.5 mph5.6 kmh 30.36 in1028.1 mb - 0.00 in0.0 mm 0.00 in0.0 mm
03:00 AM 35.0°F1.7°C 29.1°F-1.6°C 79% Calm Calm -- 30.36 in1028.1 mb - 0.00 in0.0 mm 0.00 in0.0 mm
02:45 AM 35.7°F2.1°C 29.2°F-1.6°C 77% Calm Calm -- 30.36 in1028.1 mb - 0.00 in0.0 mm 0.00 in0.0 mm
02:30 AM 36.1°F2.3°C 29.3°F-1.5°C 76% Calm Calm 3.5 mph5.6 kmh 30.37 in1028.4 mb - 0.00 in0.0 mm 0.00 in0.0 mm
02:15 AM 36.9°F2.7°C 29.7°F-1.3°C 75% Calm Calm -- 30.38 in1028.8 mb - 0.00 in0.0 mm 0.00 in0.0 mm
02:00 AM 37.6°F3.1°C 29.4°F-1.4°C 72% Calm Calm -- 30.38 in1028.8 mb - 0.00 in0.0 mm 0.00 in0.0 mm
01:45 AM 37.6°F3.1°C 29.7°F-1.3°C 73% Calm Calm -- 30.38 in1028.8 mb - 0.00 in0.0 mm 0.00 in0.0 mm
01:30 AM 36.9°F2.7°C 30.4°F-0.9°C 77% Calm Calm -- 30.39 in1029.1 mb - 0.00 in0.0 mm 0.00 in0.0 mm
01:15 AM 36.5°F2.5°C 30.6°F-0.8°C 79% Calm Calm -- 30.39 in1029.1 mb - 0.00 in0.0 mm 0.00 in0.0 mm
01:00 AM 35.9°F2.2°C 30.9°F-0.6°C 82% 1.2 mph W1.9 kmh W 2.3 mph3.7 kmh 30.39 in1029.1 mb - 0.00 in0.0 mm 0.00 in0.0 mm
12:45 AM 35.2°F1.8°C 30.9°F-0.6°C 84% 1.2 mph WSW1.9 kmh WSW 1.2 mph1.9 kmh 30.39 in1029.1 mb - 0.00 in0.0 mm 0.00 in0.0 mm
12:30 AM 35.1°F1.7°C 30.8°F-0.7°C 84% Calm Calm -- 30.39 in1029.1 mb - 0.00 in0.0 mm 0.00 in0.0 mm
12:15 AM 35.2°F1.8°C 31.2°F-0.4°C 85% Calm Calm -- 30.39 in1029.1 mb - 0.00 in0.0 mm 0.00 in0.0 mm
12:00 AM 35.5°F1.9°C 31.4°F-0.3°C 85% Calm Calm -- 30.40 in1029.5 mb - 0.00 in0.0 mm 0.00 in0.0 mm